Terminal Aerodrome Forecast
Issued by NWS

Home | Current Version | Previous Version | Text Only | Print | Product List | Glossary On
Versions: 1 2 3 4 5 6 7 8 9 10 11 12
000
FTUS45 KABQ 210500
TAFROW
TAF
KROW 210529Z 2106/2206 25006KT P6SM BKN250
     FM211800 29013G21KT P6SM SCT250
     FM220100 28008KT P6SM BKN200=

USA.gov is the U.S. government's official web portal to all federal, state and local government web resources and services.